createdAt,value
2019-01-09T00:01:37.313Z,96.05
2019-01-09T00:04:07.655Z,96.05
2019-01-09T00:06:38.357Z,95.97
2019-01-09T00:09:09.432Z,96.00
2019-01-09T00:11:39.782Z,95.97
2019-01-09T00:14:10.631Z,96.02
2019-01-09T00:16:41.800Z,96.18
2019-01-09T00:19:12.438Z,95.83
2019-01-09T00:21:42.920Z,95.60
2019-01-09T00:24:13.620Z,95.36
2019-01-09T00:26:44.233Z,95.13
2019-01-09T00:29:14.788Z,94.80
2019-01-09T00:31:45.159Z,94.73
2019-01-09T00:34:15.698Z,94.64
2019-01-09T00:36:46.394Z,94.50
2019-01-09T00:39:16.728Z,94.89
2019-01-09T00:41:47.365Z,94.72
2019-01-09T00:44:17.777Z,94.18
2019-01-09T00:46:48.357Z,94.56
2019-01-09T00:49:18.668Z,94.56
2019-01-09T00:51:49.447Z,94.41
2019-01-09T00:54:19.732Z,94.27
2019-01-09T00:56:50.342Z,94.60
2019-01-09T00:59:20.737Z,94.50
2019-01-09T01:02:10.643Z,94.70
2019-01-09T01:05:21.286Z,94.42
2019-01-09T01:08:36.700Z,94.49
2019-01-09T01:11:41.665Z,94.75
2019-01-09T01:14:52.793Z,94.91
2019-01-09T01:17:56.771Z,94.72
2019-01-09T01:20:55.107Z,94.80
2019-01-09T01:24:08.119Z,94.80
2019-01-09T01:26:54.112Z,94.53
2019-01-09T01:30:12.423Z,94.74
2019-01-09T01:33:07.686Z,94.32
2019-01-09T01:36:34.047Z,94.22
2019-01-09T01:39:35.964Z,94.61
2019-01-09T01:42:42.814Z,94.60
2019-01-09T01:45:47.532Z,94.88
2019-01-09T01:48:42.133Z,94.88
2019-01-09T01:51:49.852Z,94.60
2019-01-09T01:54:52.919Z,95.12
2019-01-09T01:57:52.495Z,95.55
2019-01-09T02:00:36.910Z,95.35
2019-01-09T02:03:56.722Z,95.04
2019-01-09T02:06:52.125Z,95.07
2019-01-09T02:10:15.207Z,95.21
2019-01-09T02:13:28.323Z,95.50
2019-01-09T02:16:50.316Z,95.93
2019-01-09T02:19:29.088Z,95.70
2019-01-09T02:22:32.971Z,95.91
2019-01-09T02:25:31.144Z,95.97
2019-01-09T02:29:00.713Z,95.86
2019-01-09T02:31:49.632Z,96.09
2019-01-09T02:34:20.239Z,96.54
2019-01-09T02:36:50.546Z,96.80
2019-01-09T02:39:21.034Z,96.77
2019-01-09T02:41:51.670Z,96.69
2019-01-09T02:44:31.842Z,96.73
2019-01-09T02:46:54.748Z,96.58
2019-01-09T02:49:25.860Z,96.76
2019-01-09T02:51:56.541Z,96.89
2019-01-09T02:54:26.989Z,96.74
2019-01-09T02:56:57.579Z,96.86
2019-01-09T02:59:29.399Z,96.71
2019-01-09T03:01:59.865Z,96.77
2019-01-09T03:04:30.493Z,96.70
2019-01-09T03:07:00.908Z,96.60
2019-01-09T03:09:31.672Z,96.97
2019-01-09T03:12:01.991Z,96.72
2019-01-09T03:14:32.426Z,96.55
2019-01-09T03:17:02.824Z,96.55
2019-01-09T03:19:33.446Z,96.79
2019-01-09T03:22:03.786Z,96.86
2019-01-09T03:24:34.603Z,96.67
2019-01-09T03:27:05.775Z,96.67
2019-01-09T03:29:36.370Z,96.65
2019-01-09T03:32:06.781Z,96.52
2019-01-09T03:34:37.400Z,96.67
2019-01-09T03:37:07.705Z,96.67
2019-01-09T03:39:38.080Z,96.17
2019-01-09T03:42:08.727Z,96.09
2019-01-09T03:44:39.320Z,96.09
2019-01-09T03:47:09.706Z,96.55
2019-01-09T03:49:40.342Z,96.62
2019-01-09T03:52:10.663Z,96.62
2019-01-09T03:54:41.124Z,96.77
2019-01-09T03:57:11.468Z,96.60
2019-01-09T03:59:41.758Z,96.66
2019-01-09T04:02:12.456Z,96.77
2019-01-09T04:04:42.747Z,96.81
2019-01-09T04:07:13.374Z,96.87
2019-01-09T04:09:43.808Z,96.88
2019-01-09T04:12:14.542Z,96.99
2019-01-09T04:14:44.852Z,96.99
2019-01-09T04:17:15.637Z,97.06
2019-01-09T04:19:45.955Z,97.05
2019-01-09T04:22:16.870Z,96.98
2019-01-09T04:24:47.779Z,97.06
2019-01-09T04:27:18.407Z,96.97
2019-01-09T04:29:48.725Z,96.90
2019-01-09T04:32:19.453Z,96.76
2019-01-09T04:34:49.798Z,96.77
2019-01-09T04:37:20.289Z,96.82
2019-01-09T04:39:50.882Z,96.87
2019-01-09T04:42:21.524Z,96.79
2019-01-09T04:44:51.852Z,96.97
2019-01-09T04:47:22.421Z,96.98
2019-01-09T04:49:52.765Z,97.02
2019-01-09T04:52:23.380Z,96.91
2019-01-09T04:54:53.798Z,96.98
2019-01-09T04:57:24.424Z,96.61
2019-01-09T04:59:54.760Z,96.77
2019-01-09T05:02:25.471Z,96.95
2019-01-09T05:04:55.792Z,96.70
2019-01-09T05:07:26.393Z,96.57
2019-01-09T05:09:56.846Z,96.63
2019-01-09T05:12:27.546Z,96.63
2019-01-09T05:14:57.950Z,96.47
2019-01-09T05:17:28.616Z,96.45
2019-01-09T05:19:58.945Z,96.50
2019-01-09T05:22:29.578Z,96.82
2019-01-09T05:24:59.989Z,96.86
2019-01-09T05:27:30.569Z,96.77
2019-01-09T05:30:00.916Z,96.59
2019-01-09T05:32:31.633Z,96.34
2019-01-09T05:35:02.289Z,96.54
2019-01-09T05:37:33.835Z,96.66
2019-01-09T05:40:04.529Z,96.36
2019-01-09T05:42:34.860Z,96.35
2019-01-09T05:45:05.522Z,96.43
2019-01-09T05:47:35.927Z,96.32
2019-01-09T05:50:06.585Z,96.22
2019-01-09T05:52:36.917Z,96.34
2019-01-09T05:55:07.618Z,96.16
2019-01-09T05:57:38.016Z,96.15
2019-01-09T06:00:09.450Z,96.05
2019-01-09T06:02:39.887Z,96.24
2019-01-09T06:05:10.480Z,96.15
2019-01-09T06:07:40.806Z,96.19
2019-01-09T06:10:11.530Z,95.89
2019-01-09T06:12:41.843Z,96.05
2019-01-09T06:15:13.570Z,96.02
2019-01-09T06:17:43.883Z,96.27
2019-01-09T06:20:14.461Z,96.28
2019-01-09T06:22:44.775Z,96.24
2019-01-09T06:25:15.473Z,96.07
2019-01-09T06:27:45.886Z,96.17
2019-01-09T06:30:16.431Z,96.05
2019-01-09T06:32:46.870Z,95.92
2019-01-09T06:35:17.530Z,95.71
2019-01-09T06:37:47.833Z,95.89
2019-01-09T06:40:18.574Z,96.01
2019-01-09T06:42:48.897Z,96.11
2019-01-09T06:45:19.542Z,96.18
2019-01-09T06:47:49.958Z,95.94
2019-01-09T06:50:21.425Z,95.94
2019-01-09T06:52:51.808Z,95.95
2019-01-09T06:55:22.640Z,95.83
2019-01-09T06:57:52.946Z,95.86
2019-01-09T07:00:23.633Z,96.10
2019-01-09T07:02:54.034Z,96.14
2019-01-09T07:05:24.679Z,96.00
2019-01-09T07:07:55.341Z,96.25
2019-01-09T07:10:25.775Z,96.14
2019-01-09T07:12:56.406Z,96.29
2019-01-09T07:15:26.846Z,96.19
2019-01-09T07:17:57.628Z,96.23
2019-01-09T07:20:27.942Z,96.18
2019-01-09T07:22:58.508Z,95.94
2019-01-09T07:25:29.367Z,95.96
2019-01-09T07:28:00.937Z,95.87
2019-01-09T07:30:31.529Z,95.67
2019-01-09T07:33:01.946Z,95.81
2019-01-09T07:35:32.685Z,95.87
2019-01-09T07:38:03.307Z,95.94
2019-01-09T07:40:33.872Z,95.98
2019-01-09T07:43:04.704Z,95.80
2019-01-09T07:45:35.035Z,95.64
2019-01-09T07:48:05.620Z,95.50
2019-01-09T07:50:36.277Z,95.38
2019-01-09T07:53:06.662Z,95.49
2019-01-09T07:55:37.116Z,95.71
2019-01-09T07:58:07.784Z,95.44
2019-01-09T08:00:38.458Z,95.75
2019-01-09T08:03:08.897Z,95.61
2019-01-09T08:05:39.860Z,95.84
2019-01-09T08:08:10.522Z,95.61
2019-01-09T08:10:49.714Z,95.62
2019-01-09T08:13:20.358Z,95.75
2019-01-09T08:15:50.690Z,95.80
2019-01-09T08:18:21.396Z,95.68
2019-01-09T08:20:51.802Z,95.63
2019-01-09T08:23:22.390Z,95.93
2019-01-09T08:25:53.275Z,95.93
2019-01-09T08:28:23.783Z,95.67
2019-01-09T08:30:54.410Z,95.96
2019-01-09T08:33:24.951Z,95.96
2019-01-09T08:35:55.526Z,95.83
2019-01-09T08:38:25.870Z,95.48
2019-01-09T08:40:56.803Z,95.84
2019-01-09T08:43:27.420Z,95.71
2019-01-09T08:45:57.787Z,95.78
2019-01-09T08:48:28.556Z,95.65
2019-01-09T08:50:58.889Z,95.65
2019-01-09T08:53:29.520Z,95.57
2019-01-09T08:55:59.938Z,95.26
2019-01-09T08:58:30.600Z,95.49
2019-01-09T09:01:00.911Z,95.53
2019-01-09T09:03:31.667Z,95.50
2019-01-09T09:06:02.023Z,95.72
2019-01-09T09:08:32.562Z,95.73
2019-01-09T09:11:03.025Z,95.86
2019-01-09T09:13:40.996Z,95.97
2019-01-09T09:16:12.669Z,95.81
2019-01-09T09:18:43.474Z,95.54
2019-01-09T09:21:13.874Z,95.79
2019-01-09T09:23:44.573Z,95.82
2019-01-09T09:26:15.146Z,95.76
2019-01-09T09:28:45.499Z,96.10
2019-01-09T09:31:16.868Z,96.16
2019-01-09T09:33:47.593Z,96.23
2019-01-09T09:36:17.995Z,96.21
2019-01-09T09:38:48.423Z,96.18
2019-01-09T09:41:18.843Z,96.09
2019-01-09T09:44:05.164Z,96.53
2019-01-09T09:46:35.617Z,96.30
2019-01-09T09:49:06.088Z,96.31
2019-01-09T09:51:36.780Z,95.91
2019-01-09T09:54:07.595Z,96.11
2019-01-09T09:56:37.922Z,96.37
2019-01-09T09:59:08.564Z,96.40
2019-01-09T10:01:38.987Z,96.50
2019-01-09T10:04:09.475Z,96.63
2019-01-09T10:06:39.826Z,96.69
2019-01-09T10:09:12.029Z,96.38
2019-01-09T10:11:42.476Z,95.93
2019-01-09T10:14:12.848Z,96.13
2019-01-09T10:16:43.544Z,96.21
2019-01-09T10:19:14.787Z,96.29
2019-01-09T10:21:45.634Z,96.63
2019-01-09T10:24:16.062Z,96.81
2019-01-09T10:26:46.463Z,97.24
2019-01-09T10:29:16.823Z,97.50
2019-01-09T10:31:47.398Z,97.49
2019-01-09T10:34:17.797Z,97.49
2019-01-09T10:36:48.857Z,97.04
2019-01-09T10:39:19.629Z,97.40
2019-01-09T10:41:50.041Z,97.40
2019-01-09T10:44:20.556Z,97.14
2019-01-09T10:46:50.978Z,96.90
2019-01-09T10:49:21.723Z,97.02
2019-01-09T10:51:52.376Z,97.39
2019-01-09T10:54:22.846Z,97.44
2019-01-09T10:56:53.487Z,96.97
2019-01-09T10:59:23.838Z,96.80
2019-01-09T11:01:54.533Z,96.81
2019-01-09T11:04:24.883Z,96.81
2019-01-09T11:06:55.522Z,97.00
2019-01-09T11:09:25.940Z,100.00
2019-01-09T11:11:58.593Z,100.00
2019-01-09T11:14:29.001Z,96.44
2019-01-09T11:17:08.207Z,94.54
2019-01-09T11:19:38.772Z,95.04
2019-01-09T11:22:09.381Z,95.04
2019-01-09T11:24:39.825Z,95.53
2019-01-09T11:27:10.436Z,95.90
2019-01-09T11:29:40.972Z,96.01
2019-01-09T11:32:11.687Z,95.94
2019-01-09T11:34:42.020Z,95.87
2019-01-09T11:37:12.672Z,95.98
2019-01-09T11:39:43.483Z,96.43
2019-01-09T11:42:13.834Z,96.62
2019-01-09T11:44:44.487Z,96.67
2019-01-09T11:47:14.967Z,96.60
2019-01-09T11:49:45.620Z,96.87
2019-01-09T11:52:15.964Z,96.97
2019-01-09T11:54:46.701Z,96.98
2019-01-09T11:57:17.339Z,96.82
2019-01-09T11:59:47.669Z,96.74
2019-01-09T12:02:22.260Z,97.06
2019-01-09T12:04:50.502Z,96.95
2019-01-09T12:07:20.814Z,96.91
2019-01-09T12:09:51.569Z,96.79
2019-01-09T12:12:21.948Z,96.62
2019-01-09T12:14:52.559Z,96.64
2019-01-09T12:17:22.959Z,96.55
2019-01-09T12:19:53.463Z,96.24
2019-01-09T12:22:23.843Z,96.23
2019-01-09T12:24:54.557Z,96.35
2019-01-09T12:27:24.873Z,96.58
2019-01-09T12:29:55.637Z,96.54
2019-01-09T12:32:26.078Z,96.42
2019-01-09T12:34:56.810Z,96.14
2019-01-09T12:37:27.440Z,96.33
2019-01-09T12:39:57.827Z,96.35
2019-01-09T12:42:28.511Z,95.97
2019-01-09T12:44:59.362Z,95.68
2019-01-09T12:47:29.839Z,95.70
2019-01-09T12:50:07.276Z,95.67
2019-01-09T12:52:37.735Z,95.82
2019-01-09T12:55:08.721Z,95.85
2019-01-09T12:57:39.391Z,95.55
2019-01-09T13:00:20.250Z,95.55
2019-01-09T13:02:50.822Z,95.56
2019-01-09T13:05:21.471Z,95.63
2019-01-09T13:07:51.847Z,95.52
2019-01-09T13:10:22.612Z,95.59
2019-01-09T13:12:53.059Z,95.61
2019-01-09T13:15:23.450Z,95.44
2019-01-09T13:17:53.929Z,95.31
2019-01-09T13:20:24.448Z,95.34
2019-01-09T13:22:54.835Z,95.27
2019-01-09T13:25:26.990Z,95.18
2019-01-09T13:27:57.545Z,95.18
2019-01-09T13:30:27.971Z,95.03
2019-01-09T13:32:58.850Z,94.88
2019-01-09T13:35:29.518Z,94.90
2019-01-09T13:37:59.839Z,95.12
2019-01-09T13:40:30.637Z,94.93
2019-01-09T13:43:01.008Z,94.98
2019-01-09T13:45:31.522Z,95.11
2019-01-09T13:48:01.952Z,95.13
2019-01-09T13:50:32.435Z,94.97
2019-01-09T13:53:02.777Z,94.53
2019-01-09T13:55:33.667Z,94.45
2019-01-09T13:58:04.296Z,94.45
2019-01-09T14:00:34.940Z,94.30
2019-01-09T14:03:06.936Z,94.34
2019-01-09T14:05:37.426Z,94.33
2019-01-09T14:08:07.737Z,94.12
2019-01-09T14:10:38.442Z,94.12
2019-01-09T14:13:08.835Z,94.04
2019-01-09T14:15:39.442Z,94.19
2019-01-09T14:18:09.891Z,94.16
2019-01-09T14:20:40.506Z,94.02
2019-01-09T14:23:11.680Z,93.93
2019-01-09T14:25:42.545Z,93.99
2019-01-09T14:28:13.014Z,93.97
2019-01-09T14:30:43.665Z,93.95
2019-01-09T14:33:14.530Z,93.94
2019-01-09T14:35:44.953Z,93.89
2019-01-09T14:38:15.640Z,93.84
2019-01-09T14:40:46.455Z,93.74
2019-01-09T14:43:16.807Z,93.69
2019-01-09T14:45:47.512Z,93.71
2019-01-09T14:48:17.969Z,93.55
2019-01-09T14:50:50.127Z,93.62
2019-01-09T14:53:20.728Z,93.60
2019-01-09T14:55:51.465Z,93.59
2019-01-09T14:58:21.873Z,93.53
2019-01-09T15:00:52.902Z,93.51
2019-01-09T15:03:23.621Z,93.54
2019-01-09T15:05:54.473Z,93.55
2019-01-09T15:08:24.865Z,93.55
2019-01-09T15:10:55.633Z,93.58
2019-01-09T15:13:26.034Z,93.57
2019-01-09T15:15:56.758Z,93.50
2019-01-09T15:18:27.512Z,93.49
2019-01-09T15:20:57.837Z,93.49
2019-01-09T15:23:28.524Z,93.52
2019-01-09T15:26:02.553Z,93.56
2019-01-09T15:28:32.949Z,93.45
2019-01-09T15:31:03.789Z,93.44
2019-01-09T15:33:34.501Z,93.48
2019-01-09T15:36:05.237Z,93.44
2019-01-09T15:38:35.843Z,93.54
2019-01-09T15:41:08.062Z,93.54
2019-01-09T15:43:38.469Z,93.64
2019-01-09T15:46:08.854Z,93.62
2019-01-09T15:48:39.650Z,93.64
2019-01-09T15:51:10.317Z,93.62
2019-01-09T15:53:40.732Z,93.66
2019-01-09T15:56:11.461Z,93.70
2019-01-09T15:58:41.895Z,93.71
2019-01-09T16:01:12.670Z,93.72
2019-01-09T16:03:43.143Z,93.73
2019-01-09T16:06:13.557Z,93.83
2019-01-09T16:08:43.934Z,93.85
2019-01-09T16:11:14.650Z,93.75
2019-01-09T16:13:44.982Z,93.75
2019-01-09T16:16:15.428Z,93.78
2019-01-09T16:18:45.887Z,93.71
2019-01-09T16:21:16.519Z,93.71
2019-01-09T16:23:46.885Z,93.73
2019-01-09T16:26:17.606Z,93.70
2019-01-09T16:28:47.952Z,93.69
2019-01-09T16:31:30.778Z,93.56
2019-01-09T16:34:01.557Z,94.21
2019-01-09T16:36:33.068Z,94.21
2019-01-09T16:39:04.054Z,93.71
2019-01-09T16:41:34.837Z,93.56
2019-01-09T16:44:05.547Z,93.58
2019-01-09T16:46:36.024Z,93.48
2019-01-09T16:49:06.477Z,93.50
2019-01-09T16:51:36.833Z,93.47
2019-01-09T16:54:07.555Z,93.55
2019-01-09T16:56:38.392Z,93.48
2019-01-09T16:59:15.738Z,93.64
2019-01-09T17:01:46.443Z,93.85
2019-01-09T17:04:16.796Z,93.85
2019-01-09T17:06:47.726Z,93.65
2019-01-09T17:09:19.633Z,93.62
2019-01-09T17:11:49.971Z,93.59
2019-01-09T17:14:20.635Z,93.33
2019-01-09T17:16:51.182Z,93.38
2019-01-09T17:19:21.488Z,93.86
2019-01-09T17:21:51.819Z,93.94
2019-01-09T17:24:22.930Z,93.86
2019-01-09T17:26:53.450Z,93.97
2019-01-09T17:29:23.922Z,93.94
2019-01-09T17:31:54.511Z,93.75
2019-01-09T17:34:24.945Z,93.88
2019-01-09T17:36:55.578Z,93.89
2019-01-09T17:39:26.110Z,93.76
2019-01-09T17:41:56.844Z,93.63
2019-01-09T17:44:27.476Z,93.69
2019-01-09T17:46:58.149Z,93.86
2019-01-09T17:49:28.507Z,93.73
2019-01-09T17:51:58.881Z,94.01
2019-01-09T17:54:29.623Z,93.80
2019-01-09T17:56:59.940Z,93.70
2019-01-09T17:59:32.594Z,93.83
2019-01-09T18:02:02.895Z,93.92
2019-01-09T18:04:33.466Z,93.92
2019-01-09T18:07:04.763Z,93.88
2019-01-09T18:09:35.491Z,93.52
2019-01-09T18:12:06.098Z,93.63
2019-01-09T18:14:36.451Z,93.63
2019-01-09T18:17:06.884Z,93.73
2019-01-09T18:19:37.591Z,93.77
2019-01-09T18:22:08.512Z,94.02
2019-01-09T18:24:38.968Z,93.86
2019-01-09T18:27:09.609Z,93.72
2019-01-09T18:29:39.940Z,93.92
2019-01-09T18:32:25.936Z,93.96
2019-01-09T18:35:14.242Z,93.71
2019-01-09T18:38:16.077Z,93.77
2019-01-09T18:41:16.092Z,93.67
2019-01-09T18:44:18.123Z,93.74
2019-01-09T18:47:12.344Z,93.71
2019-01-09T18:50:32.264Z,93.60
2019-01-09T18:53:19.471Z,93.57
2019-01-09T18:55:50.525Z,93.57
2019-01-09T18:58:20.857Z,93.63
2019-01-09T19:00:51.530Z,94.15
2019-01-09T19:03:28.476Z,93.70
2019-01-09T19:05:59.491Z,93.66
2019-01-09T19:08:29.843Z,93.32
2019-01-09T19:11:07.670Z,93.43
2019-01-09T19:13:32.643Z,93.33
2019-01-09T19:16:03.000Z,93.48
2019-01-09T19:18:33.550Z,93.57
2019-01-09T19:21:03.941Z,93.62
2019-01-09T19:23:34.575Z,93.48
2019-01-09T19:26:06.803Z,93.44
2019-01-09T19:28:37.430Z,93.57
2019-01-09T19:31:07.784Z,93.34
2019-01-09T19:33:38.575Z,93.39
2019-01-09T19:36:08.988Z,93.36
2019-01-09T19:38:39.908Z,93.37
2019-01-09T19:41:16.932Z,93.79
2019-01-09T19:43:42.778Z,93.91
2019-01-09T19:46:13.523Z,93.86
2019-01-09T19:48:44.198Z,93.67
2019-01-09T19:51:17.723Z,93.69
2019-01-09T19:53:46.963Z,93.48
2019-01-09T19:56:18.925Z,93.64
2019-01-09T19:58:49.539Z,93.64
2019-01-09T20:01:19.884Z,93.61
2019-01-09T20:03:50.647Z,93.13
2019-01-09T20:06:21.045Z,93.25
2019-01-09T20:08:51.563Z,93.25
2019-01-09T20:11:26.511Z,93.15
2019-01-09T20:13:54.213Z,92.76
2019-01-09T20:16:24.944Z,100.00
2019-01-09T20:18:55.831Z,100.00
2019-01-09T20:21:26.535Z,98.81
2019-01-09T20:23:56.915Z,90.90
2019-01-09T20:26:27.670Z,90.90
2019-01-09T20:28:58.069Z,90.88
2019-01-09T20:31:28.826Z,91.17
2019-01-09T20:33:59.566Z,91.90
2019-01-09T20:36:31.723Z,91.98
2019-01-09T20:39:02.542Z,91.65
2019-01-09T20:41:35.420Z,91.95
2019-01-09T20:44:05.459Z,91.97
2019-01-09T20:46:35.824Z,91.54
2019-01-09T20:49:06.873Z,91.68
2019-01-09T20:51:37.715Z,91.58
2019-01-09T20:54:09.410Z,91.93
2019-01-09T20:56:40.014Z,91.41
2019-01-09T20:59:10.653Z,93.00
2019-01-09T21:01:41.169Z,100.00
2019-01-09T21:04:11.606Z,100.00
2019-01-09T21:06:42.087Z,92.47
2019-01-09T21:09:12.495Z,88.27
2019-01-09T21:11:44.466Z,88.95
2019-01-09T21:14:15.392Z,89.19
2019-01-09T21:16:45.919Z,89.87
2019-01-09T21:19:16.937Z,89.87
2019-01-09T21:21:47.560Z,89.70
2019-01-09T21:24:17.977Z,89.98
2019-01-09T21:26:48.840Z,90.16
2019-01-09T21:29:19.668Z,90.13
2019-01-09T21:31:50.343Z,90.11
2019-01-09T21:34:20.959Z,89.82
2019-01-09T21:36:51.823Z,90.03
2019-01-09T21:39:23.058Z,89.88
2019-01-09T21:41:53.726Z,89.90
2019-01-09T21:44:24.589Z,90.00
2019-01-09T21:46:55.022Z,90.51
2019-01-09T21:49:25.592Z,90.58
2019-01-09T21:51:56.104Z,91.58
2019-01-09T21:54:26.585Z,92.29
2019-01-09T21:56:57.438Z,92.70
2019-01-09T21:59:27.903Z,92.82
2019-01-09T22:01:58.689Z,93.59
2019-01-09T22:04:29.845Z,93.95
2019-01-09T22:07:00.701Z,94.47
2019-01-09T22:09:31.691Z,94.87
2019-01-09T22:12:02.871Z,94.56
2019-01-09T22:14:33.562Z,94.82
2019-01-09T22:17:04.042Z,94.82
2019-01-09T22:19:35.939Z,94.64
2019-01-09T22:22:06.689Z,94.46
2019-01-09T22:24:37.204Z,94.86
2019-01-09T22:27:07.909Z,94.27
2019-01-09T22:29:38.644Z,94.67
2019-01-09T22:32:08.997Z,94.49
2019-01-09T22:34:39.687Z,94.35
2019-01-09T22:37:10.360Z,93.88
2019-01-09T22:39:40.817Z,93.72
2019-01-09T22:42:12.306Z,93.64
2019-01-09T22:44:42.802Z,93.74
2019-01-09T22:47:13.468Z,93.95
2019-01-09T22:49:43.873Z,94.11
2019-01-09T22:52:14.452Z,94.14
2019-01-09T22:54:44.975Z,93.85
2019-01-09T22:57:15.458Z,93.49
2019-01-09T22:59:46.821Z,93.57
2019-01-09T23:02:17.650Z,93.38
2019-01-09T23:04:47.982Z,93.33
2019-01-09T23:07:18.425Z,93.24
2019-01-09T23:09:48.999Z,93.20
2019-01-09T23:12:21.461Z,93.19
2019-01-09T23:14:51.712Z,93.16
2019-01-09T23:17:22.540Z,93.16
2019-01-09T23:19:52.999Z,93.15
2019-01-09T23:22:23.536Z,93.09
2019-01-09T23:24:54.026Z,92.87
2019-01-09T23:27:24.458Z,93.10
2019-01-09T23:29:54.805Z,93.07
2019-01-09T23:32:25.530Z,93.00
2019-01-09T23:34:55.984Z,92.79
2019-01-09T23:37:27.835Z,92.94
2019-01-09T23:39:58.595Z,93.69
2019-01-09T23:42:30.550Z,94.22
2019-01-09T23:45:01.494Z,94.52
2019-01-09T23:47:31.856Z,95.45
2019-01-09T23:50:02.326Z,96.13
2019-01-09T23:52:32.779Z,96.59
2019-01-09T23:55:03.504Z,97.68
2019-01-09T23:57:33.794Z,97.99
